Time;durP1;ratioP1;P1;durP2;ratioP2;P2;SDS_P1;SDS_P2;PMS_P1;PMS_P2;Temp;Humidity;BMP_temperature;BMP_pressure;BME280_temperature;BME280_humidity;BME280_pressure;Samples;Min_cycle;Max_cycle;Signal;HPM_P1;HPM_P2
2023/07/29 00:02:18;;;;;;;6.25;4.50;;;25.70;99.90;;;;;;5036281;28;20063;-62
2023/07/29 00:04:44;;;;;;;4.50;3.97;;;25.70;99.90;;;;;;5036015;28;20028;-62
2023/07/29 00:07:09;;;;;;;4.68;3.67;;;25.70;99.90;;;;;;5036050;28;20524;-61
2023/07/29 00:09:35;;;;;;;6.43;3.85;;;25.60;99.90;;;;;;5035986;28;20032;-62
2023/07/29 00:12:01;;;;;;;5.05;4.05;;;25.60;99.90;;;;;;5035893;28;20482;-62
2023/07/29 00:14:27;;;;;;;5.00;4.03;;;25.60;99.90;;;;;;5034790;28;20076;-62
2023/07/29 00:16:53;;;;;;;5.20;3.85;;;25.60;99.90;;;;;;5035874;28;20025;-62
2023/07/29 00:19:20;;;;;;;6.78;3.80;;;25.60;99.90;;;;;;5036099;28;20044;-62
2023/07/29 00:21:45;;;;;;;6.43;4.43;;;25.60;99.90;;;;;;5035736;28;20037;-62
2023/07/29 00:24:11;;;;;;;5.53;4.50;;;25.60;99.90;;;;;;5035862;28;20021;-62
2023/07/29 00:26:36;;;;;;;5.28;3.97;;;25.60;99.90;;;;;;5035738;28;20040;-62
2023/07/29 00:29:05;;;;;;;5.35;3.90;;;25.60;99.90;;;;;;5034305;28;20041;-62
2023/07/29 00:31:31;;;;;;;4.35;3.90;;;25.50;99.90;;;;;;5034740;28;20037;-62
2023/07/29 00:33:58;;;;;;;5.10;3.97;;;25.50;99.90;;;;;;5035656;28;20017;-61
2023/07/29 00:36:23;;;;;;;5.63;3.88;;;25.60;99.90;;;;;;5035591;28;20038;-62
2023/07/29 00:38:49;;;;;;;3.90;3.60;;;25.60;99.90;;;;;;5035439;28;20014;-62
2023/07/29 00:41:15;;;;;;;5.22;4.20;;;25.50;99.90;;;;;;5035503;28;20476;-62
2023/07/29 00:43:41;;;;;;;5.50;3.65;;;25.50;99.90;;;;;;5035598;28;20033;-62
2023/07/29 00:46:09;;;;;;;4.10;3.70;;;25.50;99.90;;;;;;5035389;28;20068;-62
2023/07/29 00:48:35;;;;;;;5.32;3.85;;;25.50;99.90;;;;;;5034123;28;20029;-62
2023/07/29 00:51:01;;;;;;;4.25;3.47;;;25.50;99.90;;;;;;5035218;28;20055;-62
2023/07/29 00:53:27;;;;;;;5.40;4.15;;;25.40;99.90;;;;;;5035329;28;20036;-62
2023/07/29 00:55:53;;;;;;;4.57;3.78;;;25.50;99.90;;;;;;5035239;28;20037;-62
2023/07/29 00:58:22;;;;;;;7.72;3.80;;;25.40;99.90;;;;;;5033745;28;20112;-62
2023/07/29 01:00:48;;;;;;;6.00;4.10;;;25.50;99.90;;;;;;5034823;28;20063;-62
2023/07/29 01:03:13;;;;;;;6.07;3.50;;;25.50;99.90;;;;;;5034559;28;20542;-62
2023/07/29 01:05:59;;;;;;;6.82;3.78;;;25.50;99.90;;;;;;5034520;28;20120;-62
2023/07/29 01:09:04;;;;;;;5.07;3.95;;;25.40;99.90;;;;;;5033707;28;20390;-62
2023/07/29 01:12:01;;;;;;;4.95;4.15;;;25.40;99.90;;;;;;5033376;28;20036;-62
2023/07/29 01:14:54;;;;;;;4.88;4.38;;;25.20;99.90;;;;;;5033913;28;20171;-61
2023/07/29 01:17:26;;;;;;;6.60;3.15;;;25.30;99.90;;;;;;5033994;28;20025;-61
2023/07/29 01:20:07;;;;;;;5.60;3.60;;;25.20;99.90;;;;;;5034076;28;20045;-62
2023/07/29 01:22:37;;;;;;;4.93;3.67;;;25.20;99.90;;;;;;5022149;28;20068;-62
2023/07/29 01:25:03;;;;;;;4.97;3.50;;;25.40;99.90;;;;;;5034221;28;20029;-62
2023/07/29 01:27:29;;;;;;;5.90;3.70;;;25.20;99.90;;;;;;5034312;28;20029;-62
2023/07/29 01:29:56;;;;;;;5.05;3.90;;;25.30;99.90;;;;;;5033839;28;20102;-62
2023/07/29 01:32:43;;;;;;;4.97;3.53;;;25.30;99.90;;;;;;5033184;28;20040;-62
2023/07/29 01:35:33;;;;;;;4.70;4.20;;;25.30;99.90;;;;;;5034438;28;20071;-62
2023/07/29 01:38:28;;;;;;;5.07;3.58;;;25.30;99.90;;;;;;5022439;28;20041;-62
2023/07/29 01:40:54;;;;;;;7.10;3.90;;;25.30;99.90;;;;;;5034281;28;20041;-62
2023/07/29 01:43:23;;;;;;;6.40;4.15;;;25.30;99.90;;;;;;5034060;28;20075;-62
2023/07/29 01:45:49;;;;;;;5.38;4.47;;;25.20;99.90;;;;;;5033137;28;20071;-62
2023/07/29 01:48:15;;;;;;;5.35;4.45;;;25.20;99.90;;;;;;5034233;28;20459;-63
2023/07/29 01:50:40;;;;;;;5.60;4.40;;;25.20;99.90;;;;;;5034038;28;20026;-62
2023/07/29 01:53:06;;;;;;;5.28;4.65;;;25.30;99.90;;;;;;5034255;28;20021;-62
2023/07/29 01:55:32;;;;;;;6.60;5.45;;;25.30;99.90;;;;;;5032895;28;20037;-62
2023/07/29 01:57:58;;;;;;;5.70;5.18;;;25.20;99.90;;;;;;5034012;28;20044;-62
2023/07/29 02:00:24;;;;;;;7.07;5.65;;;25.30;99.90;;;;;;5033976;28;20049;-61
2023/07/29 02:02:50;;;;;;;6.97;5.00;;;25.30;99.90;;;;;;5033920;28;20105;-62
2023/07/29 02:05:15;;;;;;;8.55;5.47;;;25.20;99.90;;;;;;5033885;28;20535;-62
2023/07/29 02:07:41;;;;;;;10.82;6.05;;;25.20;99.90;;;;;;5033841;28;20116;-62
2023/07/29 02:10:07;;;;;;;7.95;5.90;;;25.20;99.90;;;;;;5032238;28;20056;-62
2023/07/29 02:12:33;;;;;;;5.90;5.35;;;25.20;99.90;;;;;;5027241;28;20104;-62
2023/07/29 02:14:59;;;;;;;7.88;5.45;;;25.20;99.90;;;;;;5033596;28;20454;-62
2023/07/29 02:17:26;;;;;;;7.15;5.55;;;25.20;99.90;;;;;;5028002;28;20028;-62
2023/07/29 02:19:51;;;;;;;9.90;5.43;;;25.20;99.90;;;;;;5018401;28;20398;-62
2023/07/29 02:22:18;;;;;;;8.20;5.88;;;25.10;99.90;;;;;;5032681;28;20025;-62
2023/07/29 02:24:44;;;;;;;8.68;5.35;;;25.10;99.90;;;;;;5033559;28;20495;-62
2023/07/29 02:27:11;;;;;;;6.45;5.32;;;25.10;99.90;;;;;;5033437;28;20021;-62
2023/07/29 02:29:37;;;;;;;7.43;5.05;;;25.10;99.90;;;;;;5033486;28;20497;-62
2023/07/29 02:32:03;;;;;;;6.75;4.90;;;25.20;99.90;;;;;;5033568;28;20108;-62
2023/07/29 02:34:29;;;;;;;6.07;4.75;;;25.20;99.90;;;;;;5033626;28;20102;-62
2023/07/29 02:36:55;;;;;;;5.22;4.72;;;25.00;99.90;;;;;;5033328;28;20024;-62
2023/07/29 02:39:21;;;;;;;8.05;4.88;;;25.10;99.90;;;;;;5033228;28;20029;-62
2023/07/29 02:41:47;;;;;;;5.55;4.57;;;25.20;99.90;;;;;;5031914;28;20079;-62
2023/07/29 02:44:12;;;;;;;5.65;4.07;;;25.10;99.90;;;;;;5033446;28;20120;-62
2023/07/29 02:46:38;;;;;;;7.93;4.28;;;25.10;99.90;;;;;;5033228;28;20544;-62
2023/07/29 02:49:04;;;;;;;6.85;4.43;;;25.20;99.90;;;;;;5033304;28;20535;-62
2023/07/29 02:51:31;;;;;;;4.47;4.00;;;25.20;99.90;;;;;;5032533;28;20021;-62
2023/07/29 02:53:56;;;;;;;6.28;4.53;;;25.20;99.90;;;;;;5032157;28;20172;-62
2023/07/29 02:56:22;;;;;;;4.97;3.97;;;25.20;99.90;;;;;;5032763;28;20467;-62
2023/07/29 02:58:48;;;;;;;5.47;4.25;;;25.20;99.90;;;;;;5033064;28;20112;-62
2023/07/29 03:01:14;;;;;;;7.43;4.55;;;25.10;99.90;;;;;;5031509;28;20128;-62
2023/07/29 03:03:39;;;;;;;4.75;4.25;;;25.10;99.90;;;;;;5033032;28;20101;-62
2023/07/29 03:06:07;;;;;;;7.57;4.18;;;25.20;99.90;;;;;;5033039;28;20060;-62
2023/07/29 03:08:33;;;;;;;4.25;3.80;;;25.20;99.90;;;;;;5032914;28;20112;-62
2023/07/29 03:11:52;;;;;;;5.55;4.38;;;25.00;99.90;;;;;;5033240;28;20068;-62
2023/07/29 03:14:18;;;;;;;6.93;4.40;;;25.00;99.90;;;;;;5030828;28;20544;-62
2023/07/29 03:16:44;;;;;;;4.30;3.47;;;25.10;99.90;;;;;;5033103;28;20101;-62
2023/07/29 03:19:10;;;;;;;4.57;3.90;;;25.20;99.90;;;;;;5032662;28;20036;-62
2023/07/29 03:21:37;;;;;;;5.05;4.15;;;25.10;99.90;;;;;;5033076;28;20022;-62
2023/07/29 03:24:03;;;;;;;8.82;4.32;;;25.10;99.90;;;;;;5033228;28;20022;-62
2023/07/29 03:26:28;;;;;;;5.20;3.85;;;25.10;99.90;;;;;;5031441;28;20048;-62
2023/07/29 03:28:54;;;;;;;4.13;3.72;;;25.10;99.90;;;;;;5032840;28;20460;-62
2023/07/29 03:31:20;;;;;;;4.72;4.00;;;;;;;;;;5032734;28;20435;-62
2023/07/29 03:33:46;;;;;;;6.40;3.70;;;24.90;99.90;;;;;;5033053;28;20087;-62
2023/07/29 03:36:12;;;;;;;5.63;3.80;;;25.00;99.90;;;;;;5032536;28;20031;-62
2023/07/29 03:38:40;;;;;;;5.00;4.60;;;24.90;99.90;;;;;;5032887;28;20378;-62
2023/07/29 03:41:07;;;;;;;4.50;4.03;;;24.80;99.90;;;;;;5032536;28;20083;-62
2023/07/29 03:43:33;;;;;;;4.55;3.67;;;25.00;99.90;;;;;;5018915;28;20024;-62
2023/07/29 03:45:58;;;;;;;5.50;4.10;;;25.00;99.90;;;;;;5032550;28;20037;-63
2023/07/29 03:48:24;;;;;;;7.18;4.05;;;;;;;;;;5032574;28;20033;-62
2023/07/29 03:50:50;;;;;;;7.13;3.85;;;25.00;99.90;;;;;;5032544;28;20036;-62
2023/07/29 03:53:16;;;;;;;6.63;4.50;;;25.00;99.90;;;;;;5032831;28;20026;-62
2023/07/29 03:55:42;;;;;;;5.90;4.38;;;24.80;99.90;;;;;;5032502;28;20029;-62
2023/07/29 03:58:08;;;;;;;6.25;4.25;;;24.90;99.90;;;;;;5032722;28;20029;-62
2023/07/29 04:00:34;;;;;;;5.78;4.25;;;24.90;99.90;;;;;;5032331;28;20045;-62
2023/07/29 04:02:59;;;;;;;5.25;4.20;;;24.90;99.90;;;;;;5035233;28;20025;-62
2023/07/29 04:05:25;;;;;;;4.68;4.18;;;25.00;99.90;;;;;;5036368;28;20122;-62
2023/07/29 04:07:52;;;;;;;5.57;4.15;;;24.90;99.90;;;;;;5036154;28;20060;-62
2023/07/29 04:10:17;;;;;;;7.10;4.40;;;25.00;99.90;;;;;;5034724;28;20025;-62
2023/07/29 04:12:43;;;;;;;6.72;4.00;;;25.00;99.90;;;;;;5036293;28;20105;-62
2023/07/29 04:15:09;;;;;;;4.47;3.33;;;25.00;99.90;;;;;;5035683;28;20049;-62
2023/07/29 04:17:35;;;;;;;5.25;4.25;;;24.80;99.90;;;;;;5035910;28;20017;-62
2023/07/29 04:20:00;;;;;;;10.23;4.60;;;24.80;99.90;;;;;;5036037;28;20041;-61
2023/07/29 04:22:26;;;;;;;6.28;4.32;;;24.80;99.90;;;;;;5035946;28;20021;-62
2023/07/29 04:24:59;;;;;;;4.38;4.07;;;;;;;;;;5035825;28;20033;-62
2023/07/29 04:27:25;;;;;;;6.90;4.10;;;;;;;;;;5035824;28;20099;-62
2023/07/29 04:29:51;;;;;;;7.20;4.05;;;;;;;;;;5035648;28;20053;-62
2023/07/29 04:32:17;;;;;;;5.43;4.22;;;;;;;;;;5035898;28;20105;-62
2023/07/29 04:34:43;;;;;;;5.97;3.92;;;;;;;;;;5035922;28;20029;-62
2023/07/29 04:37:12;;;;;;;7.75;4.25;;;;;;;;;;5035783;28;20463;-62
2023/07/29 04:39:38;;;;;;;5.82;4.38;;;;;;;;;;5035466;28;20072;-62
2023/07/29 04:42:07;;;;;;;5.40;4.00;;;;;;;;;;5035648;28;20056;-62
2023/07/29 04:44:33;;;;;;;5.97;4.15;;;;;;;;;;5035296;28;20505;-62
2023/07/29 04:47:00;;;;;;;6.40;3.55;;;;;;;;;;5035463;28;20029;-62
2023/07/29 04:49:26;;;;;;;6.65;4.10;;;;;;;;;;5035398;28;20101;-62
2023/07/29 04:51:52;;;;;;;7.50;4.32;;;;;;;;;;5035617;28;20049;-62
2023/07/29 04:54:20;;;;;;;7.50;4.90;;;;;;;;;;5034015;28;20022;-62
2023/07/29 04:56:46;;;;;;;5.88;4.60;;;;;;;;;;5035145;28;20508;-62
2023/07/29 04:59:12;;;;;;;6.20;4.18;;;;;;;;;;5035259;28;20344;-62
2023/07/29 05:01:39;;;;;;;6.28;4.32;;;;;;;;;;5035191;28;20037;-62
2023/07/29 05:04:05;;;;;;;5.55;4.10;;;;;;;;;;5035211;28;20026;-62
2023/07/29 05:06:31;;;;;;;8.00;4.18;;;;;;;;;;5035288;28;20459;-62
2023/07/29 05:08:58;;;;;;;8.57;4.70;;;;;;;;;;5034889;28;20582;-62
2023/07/29 05:11:25;;;;;;;4.95;4.03;;;;;;;;;;5035163;28;20021;-62
2023/07/29 05:13:51;;;;;;;5.20;4.28;;;;;;;;;;5034157;28;20495;-62
2023/07/29 05:16:17;;;;;;;4.32;3.92;;;;;;;;;;5034971;28;20026;-62
2023/07/29 05:18:43;;;;;;;5.47;4.00;;;;;;;;;;5034674;28;20034;-62
2023/07/29 05:21:11;;;;;;;8.10;4.20;;;;;;;;;;5034960;28;20033;-62
2023/07/29 05:23:45;;;;;;;7.65;4.45;;;;;;;;;;5034718;28;20022;-62
2023/07/29 05:26:11;;;;;;;6.25;4.50;;;;;;;;;;5034667;28;20030;-62
2023/07/29 05:28:37;;;;;;;3.35;2.95;;;;;;;;;;5034844;28;20029;-62
2023/07/29 05:31:03;;;;;;;6.75;4.70;;;;;;;;;;5033383;28;20037;-62
2023/07/29 05:33:29;;;;;;;6.93;4.22;;;;;;;;;;5034589;28;20018;-62
2023/07/29 05:35:55;;;;;;;7.15;4.40;;;;;;;;;;5034591;28;20072;-62
2023/07/29 05:38:21;;;;;;;6.45;4.35;;;;;;;;;;5034369;28;20028;-62
2023/07/29 05:40:48;;;;;;;8.77;4.72;;;;;;;;;;5034401;28;20728;-62
2023/07/29 05:43:14;;;;;;;6.22;4.57;;;;;;;;;;5032906;28;20030;-62
2023/07/29 05:45:41;;;;;;;6.30;5.13;;;;;;;;;;5034399;28;20032;-62
2023/07/29 05:48:07;;;;;;;6.45;5.13;;;;;;;;;;5034203;28;20115;-62
2023/07/29 05:50:33;;;;;;;6.35;4.60;;;;;;;;;;5034268;28;20455;-62
2023/07/29 05:52:59;;;;;;;6.78;4.35;;;;;;;;;;5033029;28;20096;-62
2023/07/29 05:55:25;;;;;;;6.43;4.55;;;;;;;;;;5034143;28;20075;-62
2023/07/29 05:57:51;;;;;;;8.27;4.72;;;;;;;;;;5034203;28;20022;-62
2023/07/29 06:00:17;;;;;;;4.72;4.22;;;;;;;;;;5033787;28;20051;-62
2023/07/29 06:02:43;;;;;;;7.18;4.15;;;;;;;;;;5033994;28;20534;-62
2023/07/29 06:05:09;;;;;;;5.07;4.43;;;;;;;;;;5034099;28;20091;-62
2023/07/29 06:07:36;;;;;;;7.75;4.70;;;;;;;;;;5033985;28;20491;-62
2023/07/29 06:10:02;;;;;;;8.35;4.90;;;;;;;;;;5032688;28;20033;-62
2023/07/29 06:12:28;;;;;;;4.65;3.75;;;;;;;;;;5033764;28;20028;-62
2023/07/29 06:14:54;;;;;;;8.27;4.70;;;;;;;;;;5033755;28;20033;-62
2023/07/29 06:17:20;;;;;;;4.43;4.03;;;;;;;;;;5031765;28;20021;-62
2023/07/29 06:19:46;;;;;;;4.55;4.05;;;;;;;;;;5025942;28;20030;-62
2023/07/29 06:22:12;;;;;;;7.63;4.60;;;;;;;;;;5025451;28;20029;-63
2023/07/29 06:24:38;;;;;;;6.05;4.35;;;;;;;;;;5033560;28;20104;-62
2023/07/29 06:27:04;;;;;;;6.32;4.63;;;;;;;;;;5032913;28;20060;-62
2023/07/29 06:29:30;;;;;;;5.85;4.35;;;;;;;;;;5033727;28;20072;-62
2023/07/29 06:31:56;;;;;;;5.65;3.90;;;;;;;;;;5033801;28;20029;-62
2023/07/29 06:34:22;;;;;;;8.02;3.97;;;;;;;;;;5033629;28;20021;-62
2023/07/29 06:36:48;;;;;;;6.22;4.15;;;;;;;;;;5033467;28;20452;-60
2023/07/29 06:39:14;;;;;;;5.68;3.90;;;24.80;99.90;;;;;;5033357;28;20025;-61
2023/07/29 06:41:40;;;;;;;5.63;3.85;;;25.20;99.90;;;;;;5033364;28;20037;-62
2023/07/29 06:44:05;;;;;;;5.88;3.45;;;25.00;99.90;;;;;;5033371;28;20053;-61
2023/07/29 06:46:31;;;;;;;8.38;4.88;;;25.20;99.90;;;;;;5031989;28;20029;-61
2023/07/29 06:48:57;;;;;;;4.70;4.25;;;25.20;99.90;;;;;;5032013;28;20029;-61
2023/07/29 06:51:22;;;;;;;6.70;4.32;;;25.20;99.90;;;;;;5033515;28;20030;-61
2023/07/29 06:53:48;;;;;;;6.22;4.15;;;25.30;99.90;;;;;;5033394;28;20100;-61
2023/07/29 06:56:14;;;;;;;6.25;3.80;;;25.30;99.90;;;;;;5033126;28;20025;-61
2023/07/29 06:58:39;;;;;;;5.65;3.67;;;25.30;99.90;;;;;;5028976;28;20030;-61
2023/07/29 07:01:05;;;;;;;4.90;4.30;;;25.30;99.90;;;;;;5005430;28;20118;-61
2023/07/29 07:03:31;;;;;;;5.00;3.97;;;25.30;99.90;;;;;;5029700;28;20037;-62
2023/07/29 07:05:57;;;;;;;7.35;4.43;;;25.30;99.90;;;;;;5033059;28;20375;-62
2023/07/29 07:08:22;;;;;;;7.30;3.85;;;25.40;99.90;;;;;;5032923;28;20479;-62
2023/07/29 07:11:13;;;;;;;5.78;3.83;;;25.40;99.90;;;;;;5032822;28;20037;-61
2023/07/29 07:13:39;;;;;;;6.10;3.47;;;25.40;99.90;;;;;;5025686;28;20034;-61
2023/07/29 07:16:05;;;;;;;6.53;4.15;;;25.50;99.90;;;;;;5032844;28;20033;-61
2023/07/29 07:18:30;;;;;;;4.20;3.28;;;25.50;99.90;;;;;;5032916;28;20034;-62
2023/07/29 07:20:56;;;;;;;8.48;3.67;;;25.50;99.90;;;;;;5032589;28;20026;-61
2023/07/29 07:23:21;;;;;;;4.05;3.35;;;25.50;99.90;;;;;;5032940;28;20386;-61
2023/07/29 07:25:47;;;;;;;5.78;3.53;;;25.60;99.90;;;;;;5032857;28;20572;-61
2023/07/29 07:28:13;;;;;;;6.68;3.60;;;25.60;99.90;;;;;;5032466;28;20491;-61
2023/07/29 07:30:41;;;;;;;4.30;3.83;;;25.60;99.90;;;;;;5033045;28;20191;-61
2023/07/29 07:33:07;;;;;;;7.90;4.05;;;25.60;99.90;;;;;;5031339;28;20022;-61
2023/07/29 07:35:33;;;;;;;5.68;3.28;;;25.70;99.90;;;;;;5032525;28;20057;-61
2023/07/29 07:38:01;;;;;;;5.03;3.88;;;25.70;99.90;;;;;;5035082;28;20029;-61
2023/07/29 07:40:27;;;;;;;4.63;3.42;;;25.80;99.90;;;;;;5036867;28;20099;-62
2023/07/29 07:42:53;;;;;;;6.72;3.30;;;25.80;99.90;;;;;;5036429;28;20033;-61
2023/07/29 07:45:19;;;;;;;6.07;4.30;;;25.80;99.90;;;;;;5036856;28;20021;-61
2023/07/29 07:47:45;;;;;;;5.10;3.88;;;25.90;99.90;;;;;;5036392;28;20053;-62
2023/07/29 07:50:10;;;;;;;4.85;3.55;;;26.00;99.90;;;;;;5036475;28;20068;-62
2023/07/29 07:52:36;;;;;;;3.75;3.38;;;25.90;99.90;;;;;;5036488;28;20475;-62
2023/07/29 07:55:04;;;;;;;5.50;3.90;;;25.90;99.90;;;;;;5036217;28;20531;-61
2023/07/29 07:57:29;;;;;;;5.15;3.15;;;26.00;99.90;;;;;;5036444;28;20037;-61
2023/07/29 07:59:55;;;;;;;7.00;3.42;;;26.00;99.90;;;;;;5036326;28;20029;-61
2023/07/29 08:02:21;;;;;;;5.18;3.40;;;26.00;99.90;;;;;;5034911;28;20041;-61
2023/07/29 08:04:46;;;;;;;4.65;3.33;;;26.10;99.90;;;;;;5036232;28;20018;-61
2023/07/29 08:07:13;;;;;;;5.15;3.67;;;26.10;99.90;;;;;;5036033;28;20033;-61
2023/07/29 08:09:39;;;;;;;4.60;3.47;;;26.10;99.90;;;;;;5036420;28;20394;-61
2023/07/29 08:12:05;;;;;;;6.22;4.18;;;26.10;99.90;;;;;;5034755;28;20127;-61
2023/07/29 08:14:30;;;;;;;5.63;3.35;;;26.10;99.90;;;;;;5036104;28;20017;-61
2023/07/29 08:16:56;;;;;;;6.93;3.47;;;26.20;99.90;;;;;;5035975;28;20120;-61
2023/07/29 08:19:21;;;;;;;4.45;3.28;;;26.20;99.90;;;;;;5036020;28;20112;-61
2023/07/29 08:21:47;;;;;;;6.70;3.88;;;26.10;99.90;;;;;;5034635;28;20037;-61
2023/07/29 08:24:13;;;;;;;8.63;3.88;;;26.20;99.90;;;;;;5035883;28;20151;-61
2023/07/29 08:26:38;;;;;;;3.85;3.53;;;26.20;99.90;;;;;;5036040;28;20108;-61
2023/07/29 08:29:04;;;;;;;5.03;3.78;;;26.20;99.90;;;;;;5036041;28;20455;-61
2023/07/29 08:31:33;;;;;;;5.45;3.65;;;26.20;99.90;;;;;;5035884;28;20452;-62
2023/07/29 08:33:59;;;;;;;6.30;3.42;;;26.40;99.90;;;;;;5035716;28;20168;-60
2023/07/29 08:36:24;;;;;;;5.13;3.72;;;26.40;99.90;;;;;;5035998;28;20092;-61
2023/07/29 08:38:50;;;;;;;6.78;4.10;;;26.40;99.90;;;;;;5035787;28;20494;-61
2023/07/29 08:41:29;;;;;;;3.90;3.58;;;26.50;99.90;;;;;;5035506;28;20437;-61
2023/07/29 08:44:02;;;;;;;4.80;3.40;;;26.50;99.90;;;;;;5035600;28;20029;-61
2023/07/29 08:46:29;;;;;;;4.43;3.65;;;26.60;99.90;;;;;;5035409;28;20495;-61
2023/07/29 08:48:55;;;;;;;7.55;3.80;;;26.60;99.90;;;;;;5034510;28;20076;-61
2023/07/29 08:51:23;;;;;;;4.72;3.25;;;26.60;99.90;;;;;;5033829;28;20022;-61
2023/07/29 08:53:49;;;;;;;4.57;3.60;;;26.70;99.90;;;;;;5021922;28;20033;-61
2023/07/29 08:56:16;;;;;;;6.43;3.65;;;26.70;99.90;;;;;;5035328;28;20032;-61
2023/07/29 08:58:42;;;;;;;4.93;3.58;;;26.70;99.90;;;;;;5035423;28;20116;-61
2023/07/29 09:01:08;;;;;;;5.00;4.47;;;26.80;99.90;;;;;;5035301;28;20049;-61
2023/07/29 09:03:37;;;;;;;6.15;3.78;;;26.90;99.90;;;;;;5035140;28;20045;-61
2023/07/29 09:06:07;;;;;;;6.70;3.83;;;26.90;99.90;;;;;;5035334;28;20025;-65
2023/07/29 09:08:34;;;;;;;5.80;3.88;;;26.90;99.90;;;;;;5035018;28;20083;-62
2023/07/29 09:11:00;;;;;;;5.57;4.40;;;27.00;99.90;;;;;;5035238;28;20030;-61
2023/07/29 09:13:25;;;;;;;6.80;4.47;;;27.10;99.90;;;;;;5035306;28;20045;-61
2023/07/29 09:15:56;;;;;;;4.88;4.07;;;27.10;99.90;;;;;;5033856;28;20033;-62
2023/07/29 09:18:40;;;;;;;6.43;3.80;;;27.00;99.90;;;;;;5035005;28;20037;-61
2023/07/29 09:21:05;;;;;;;;;;;27.10;99.90;;;;;;5031950;28;20037;-61
2023/07/29 09:23:41;;;;;;;5.10;3.35;;;27.10;99.90;;;;;;5034953;28;19950;-62
2023/07/29 09:26:07;;;;;;;4.22;3.58;;;27.20;99.90;;;;;;5034834;28;20037;-61
2023/07/29 09:28:38;;;;;;;7.80;3.70;;;27.20;99.90;;;;;;5035021;28;20022;-61
2023/07/29 09:31:18;;;;;;;4.18;3.78;;;27.30;99.90;;;;;;5034624;28;20033;-62
2023/07/29 09:33:43;;;;;;;5.63;3.58;;;27.20;99.90;;;;;;5034907;28;20036;-61
2023/07/29 09:36:10;;;;;;;6.15;3.50;;;27.30;99.90;;;;;;5034730;28;20025;-62
2023/07/29 09:38:36;;;;;;;4.20;3.38;;;27.30;99.90;;;;;;5033290;28;20099;-62
2023/07/29 09:41:02;;;;;;;4.70;3.88;;;27.50;99.90;;;;;;5033105;28;20041;-61
2023/07/29 09:43:46;;;;;;;4.47;3.80;;;27.70;99.90;;;;;;5033631;28;20116;-62
2023/07/29 09:46:11;;;;;;;5.40;3.58;;;27.90;99.90;;;;;;5033881;28;20116;-62
2023/07/29 09:48:38;;;;;;;5.07;3.90;;;27.80;99.90;;;;;;5034413;28;20045;-61
2023/07/29 09:51:12;;;;;;;4.30;3.20;;;27.80;99.90;;;;;;5033859;28;20032;-61
2023/07/29 09:53:45;;;;;;;4.10;3.53;;;27.80;99.90;;;;;;5034332;28;20444;-61
2023/07/29 09:56:12;;;;;;;7.03;3.47;;;27.80;99.90;;;;;;5034055;28;20025;-61
2023/07/29 09:58:38;;;;;;;6.18;3.92;;;27.80;99.90;;;;;;5033936;28;20022;-62
2023/07/29 10:01:07;;;;;;;4.43;3.70;;;27.70;99.90;;;;;;5033731;28;20148;-61
2023/07/29 10:03:35;;;;;;;3.90;3.50;;;27.90;99.90;;;;;;5034043;28;20025;-61
2023/07/29 10:06:05;;;;;;;3.53;3.22;;;28.10;99.90;;;;;;5033977;28;20033;-62
2023/07/29 10:08:32;;;;;;;3.38;3.05;;;28.10;99.90;;;;;;5034026;28;20087;-62
2023/07/29 10:11:19;;;;;;;4.75;3.42;;;28.10;99.90;;;;;;5033764;28;20100;-62
2023/07/29 10:13:45;;;;;;;5.50;3.17;;;28.20;99.90;;;;;;5033748;28;20392;-62
2023/07/29 10:16:12;;;;;;;3.53;3.17;;;28.30;99.90;;;;;;5033682;28;20087;-61
2023/07/29 10:18:38;;;;;;;4.45;3.60;;;28.10;99.90;;;;;;5033641;28;20497;-61
2023/07/29 10:21:06;;;;;;;4.18;3.75;;;28.20;99.90;;;;;;5033627;28;20046;-61
2023/07/29 10:23:40;;;;;;;3.95;3.60;;;28.30;99.90;;;;;;5033652;28;20026;-61
2023/07/29 10:26:10;;;;;;;6.07;3.65;;;28.60;99.90;;;;;;5033472;28;20026;-62
2023/07/29 10:28:44;;;;;;;4.75;3.35;;;28.70;99.90;;;;;;5033488;28;20079;-62
2023/07/29 10:31:10;;;;;;;4.25;3.60;;;28.90;99.90;;;;;;5033693;28;20037;-62
2023/07/29 10:33:37;;;;;;;4.13;3.40;;;29.10;99.90;;;;;;5033462;28;20425;-61
2023/07/29 10:36:04;;;;;;;3.45;3.15;;;29.00;99.90;;;;;;5033757;28;20032;-61
2023/07/29 10:38:30;;;;;;;4.68;3.70;;;28.90;99.90;;;;;;5033590;28;20029;-61
2023/07/29 10:40:59;;;;;;;6.95;3.63;;;28.90;99.90;;;;;;5033218;28;20041;-61
2023/07/29 10:43:31;;;;;;;4.05;3.00;;;29.00;99.90;;;;;;5033166;28;20368;-62
2023/07/29 10:45:58;;;;;;;4.22;3.20;;;29.20;99.90;;;;;;5033257;28;20468;-61
2023/07/29 10:48:32;;;;;;;5.88;3.80;;;29.30;99.90;;;;;;5031832;28;20475;-61
2023/07/29 10:51:37;;;;;;;4.43;3.50;;;29.40;99.90;;;;;;5033222;28;20098;-62
2023/07/29 10:54:10;;;;;;;4.40;3.72;;;29.60;99.90;;;;;;5031175;28;20049;-62
2023/07/29 10:56:39;;;;;;;6.63;4.05;;;29.50;99.90;;;;;;5030850;28;20371;-61
2023/07/29 10:59:32;;;;;;;7.55;3.58;;;29.50;99.90;;;;;;5032277;28;20048;-61
2023/07/29 11:02:19;;;;;;;8.60;3.78;;;29.60;99.90;;;;;;5032828;28;20049;-62
2023/07/29 11:04:50;;;;;;;3.45;3.15;;;29.80;99.90;;;;;;5032888;28;20032;-62
2023/07/29 11:07:16;;;;;;;4.75;3.35;;;29.90;99.90;;;;;;5031779;28;20361;-62
2023/07/29 11:09:50;;;;;;;3.85;2.85;;;29.90;99.90;;;;;;5033236;28;20040;-62
2023/07/29 11:12:34;;;;;;;;;;;30.00;99.90;;;;;;5033162;28;20017;-62
2023/07/29 11:15:10;;;;;;;4.75;3.50;;;30.00;99.90;;;;;;5033301;28;19913;-62
2023/07/29 11:17:41;;;;;;;4.25;3.85;;;29.90;99.90;;;;;;5019355;28;20037;-62
2023/07/29 11:20:07;;;;;;;4.82;3.60;;;29.90;99.90;;;;;;5032884;28;20480;-62
2023/07/29 11:22:34;;;;;;;3.75;3.45;;;;;;;;;;5031514;28;20056;-61
2023/07/29 11:24:59;;;;;;;5.55;4.30;;;30.20;99.90;;;;;;5031657;28;20384;-62
2023/07/29 11:27:25;;;;;;;6.10;3.70;;;30.60;99.90;;;;;;5032846;28;20083;-62
2023/07/29 11:30:01;;;;;;;5.13;3.40;;;30.60;99.90;;;;;;5032790;28;20053;-62
2023/07/29 11:32:27;;;;;;;3.85;3.30;;;30.50;99.90;;;;;;5032832;28;20379;-62
2023/07/29 11:34:52;;;;;;;5.28;4.00;;;30.30;99.90;;;;;;5032965;28;20029;-61
2023/07/29 11:37:20;;;;;;;5.05;3.10;;;30.40;99.90;;;;;;5032879;28;20018;-62
2023/07/29 11:39:47;;;;;;;7.40;3.40;;;;;;;;;;5032377;28;20033;-62
2023/07/29 11:42:15;;;;;;;5.25;3.63;;;;;;;;;;5033028;28;20112;-62
2023/07/29 11:44:41;;;;;;;4.07;3.50;;;;;;;;;;5032709;28;20034;-62
2023/07/29 11:47:08;;;;;;;4.07;3.50;;;30.80;99.90;;;;;;5032632;28;20117;-62
2023/07/29 11:49:34;;;;;;;4.95;3.65;;;37.60;99.90;;;;;;5032681;28;20132;-62
2023/07/29 11:52:00;;;;;;;3.67;3.35;;;39.30;99.90;;;;;;5032456;28;20037;-62
2023/07/29 11:54:30;;;;;;;4.50;3.80;;;;;;;;;;5031410;28;20431;-62
2023/07/29 11:56:56;;;;;;;5.28;4.40;;;40.40;99.90;;;;;;5032409;28;20538;-62
2023/07/29 11:59:22;;;;;;;4.68;3.67;;;42.90;99.90;;;;;;5032519;28;20017;-62
2023/07/29 12:01:48;;;;;;;4.75;3.65;;;39.70;99.90;;;;;;5032431;28;20041;-62
2023/07/29 12:04:14;;;;;;;5.20;3.55;;;39.80;99.90;;;;;;5032472;28;20475;-62
2023/07/29 12:06:40;;;;;;;4.32;3.92;;;42.40;99.90;;;;;;5032625;28;20549;-62
2023/07/29 12:09:07;;;;;;;6.60;4.07;;;42.20;99.90;;;;;;5032429;28;20022;-62
2023/07/29 12:11:33;;;;;;;4.20;3.90;;;39.10;99.90;;;;;;5032467;28;20080;-62
2023/07/29 12:14:00;;;;;;;5.18;4.47;;;38.60;99.90;;;;;;5032402;28;20121;-62
2023/07/29 12:16:25;;;;;;;6.40;4.45;;;39.30;99.90;;;;;;5032412;28;20111;-62
2023/07/29 12:18:51;;;;;;;5.70;3.83;;;40.10;99.90;;;;;;5032040;28;20080;-63
2023/07/29 12:21:19;;;;;;;6.13;4.35;;;39.70;99.90;;;;;;5031000;28;20037;-62
2023/07/29 12:23:45;;;;;;;4.32;4.03;;;40.30;99.90;;;;;;5031572;28;20018;-62
2023/07/29 12:26:16;;;;;;;4.93;4.43;;;40.90;99.90;;;;;;5035909;28;20024;-62
2023/07/29 12:28:46;;;;;;;5.35;4.85;;;40.10;99.90;;;;;;5035860;28;20360;-62
2023/07/29 12:31:12;;;;;;;5.70;5.20;;;39.40;99.90;;;;;;5035762;28;20093;-62
2023/07/29 12:33:41;;;;;;;6.57;4.45;;;;;;;;;;5035822;28;20026;-62
2023/07/29 12:36:07;;;;;;;6.40;4.20;;;39.20;99.90;;;;;;5036042;28;20028;-62
2023/07/29 12:38:33;;;;;;;4.80;4.40;;;42.10;99.90;;;;;;5035769;28;20449;-62
2023/07/29 12:40:59;;;;;;;6.88;4.57;;;41.60;99.90;;;;;;5035543;28;20041;-63
2023/07/29 12:43:25;;;;;;;4.38;4.05;;;40.20;99.90;;;;;;5035529;28;20013;-62
2023/07/29 12:45:51;;;;;;;5.53;4.95;;;;;;;;;;5035470;28;20033;-62
2023/07/29 12:48:17;;;;;;;4.75;4.45;;;;;;;;;;5035503;28;20029;-62
2023/07/29 12:50:43;;;;;;;3.95;3.65;;;;;;;;;;5035738;28;20079;-62
2023/07/29 12:53:13;;;;;;;6.53;4.30;;;38.10;99.90;;;;;;5035314;28;20022;-62
2023/07/29 12:55:39;;;;;;;6.82;4.50;;;38.70;99.90;;;;;;5034522;28;20160;-62
2023/07/29 12:58:04;;;;;;;4.95;4.55;;;38.90;99.90;;;;;;5035402;28;20471;-62
2023/07/29 13:00:33;;;;;;;4.90;4.40;;;37.60;99.90;;;;;;5034954;28;20073;-62
2023/07/29 13:02:59;;;;;;;4.70;4.28;;;38.10;99.90;;;;;;5035553;28;20037;-62
2023/07/29 13:05:25;;;;;;;4.38;4.05;;;36.90;99.90;;;;;;5033401;28;20032;-62
2023/07/29 13:07:51;;;;;;;5.63;4.07;;;38.60;99.90;;;;;;5034715;28;20426;-62
2023/07/29 13:10:16;;;;;;;4.65;4.25;;;38.80;99.90;;;;;;5035253;28;20034;-62
2023/07/29 13:12:42;;;;;;;4.40;4.05;;;38.60;99.90;;;;;;5034728;28;20517;-62